createdAt,value
2017-12-11T00:01:44.310Z,16.87
2017-12-11T00:03:46.972Z,16.67
2017-12-11T00:05:49.699Z,20.70
2017-12-11T00:07:53.149Z,15.93
2017-12-11T00:09:55.805Z,16.70
2017-12-11T00:11:58.486Z,13.80
2017-12-11T00:14:01.177Z,16.47
2017-12-11T00:16:15.931Z,18.87
2017-12-11T00:18:18.595Z,17.13
2017-12-11T00:20:21.315Z,16.33
2017-12-11T00:22:36.011Z,21.83
2017-12-11T00:24:38.667Z,22.67
2017-12-11T00:26:42.127Z,22.87
2017-12-11T00:28:44.807Z,26.37
2017-12-11T00:30:47.476Z,22.63
2017-12-11T00:32:50.158Z,22.30
2017-12-11T00:34:52.815Z,23.10
2017-12-11T00:36:55.482Z,18.97
2017-12-11T00:38:58.155Z,24.53
2017-12-11T00:41:00.857Z,17.97
2017-12-11T00:43:03.554Z,20.53
2017-12-11T00:45:06.262Z,22.27
2017-12-11T00:47:08.960Z,23.43
2017-12-11T00:49:11.678Z,18.43
2017-12-11T00:51:14.410Z,22.10
2017-12-11T00:53:17.080Z,30.50
2017-12-11T00:55:19.744Z,20.77
2017-12-11T00:57:22.427Z,22.03
2017-12-11T00:59:25.090Z,19.70
2017-12-11T01:01:28.577Z,17.23
2017-12-11T01:03:32.094Z,19.40
2017-12-11T01:05:34.795Z,23.70
2017-12-11T01:07:37.535Z,20.73
2017-12-11T01:09:41.004Z,18.90
2017-12-11T01:11:43.652Z,20.10
2017-12-11T01:13:46.358Z,18.77
2017-12-11T01:15:49.022Z,20.70
2017-12-11T01:17:51.719Z,17.90
2017-12-11T01:19:55.164Z,20.60
2017-12-11T01:21:57.816Z,21.60
2017-12-11T01:24:01.690Z,20.30
2017-12-11T01:26:04.334Z,29.20
2017-12-11T01:28:06.986Z,20.03
2017-12-11T01:30:09.659Z,25.83
2017-12-11T01:32:12.362Z,23.83
2017-12-11T01:34:15.013Z,25.17
2017-12-11T01:36:17.686Z,23.10
2017-12-11T01:38:20.355Z,22.10
2017-12-11T01:40:23.062Z,21.27
2017-12-11T01:42:25.825Z,24.00
2017-12-11T01:44:28.512Z,21.80
2017-12-11T01:46:31.211Z,26.77
2017-12-11T01:48:33.922Z,23.23
2017-12-11T01:50:37.385Z,28.00
2017-12-11T01:52:40.055Z,26.83
2017-12-11T01:54:42.804Z,26.87
2017-12-11T01:56:45.490Z,24.03
2017-12-11T01:58:48.161Z,29.60
2017-12-11T02:00:50.846Z,29.20
2017-12-11T02:02:54.249Z,29.30
2017-12-11T02:04:56.940Z,29.93
2017-12-11T02:06:59.594Z,33.27
2017-12-11T02:09:02.248Z,30.13
2017-12-11T02:11:04.963Z,28.70
2017-12-11T02:13:07.614Z,30.43
2017-12-11T02:15:10.311Z,33.97
2017-12-11T02:17:13.037Z,40.03
2017-12-11T02:19:15.733Z,31.37
2017-12-11T02:21:18.427Z,34.27
2017-12-11T02:23:21.126Z,34.97
2017-12-11T02:25:23.814Z,31.80
2017-12-11T02:27:26.512Z,32.30
2017-12-11T02:29:29.995Z,36.40
2017-12-11T02:31:33.468Z,31.53
2017-12-11T02:33:36.173Z,31.43
2017-12-11T02:35:39.697Z,35.90
2017-12-11T02:37:42.414Z,40.50
2017-12-11T02:39:45.107Z,30.07
2017-12-11T02:41:47.818Z,40.63
2017-12-11T02:43:50.607Z,30.33
2017-12-11T02:45:53.308Z,33.97
2017-12-11T02:47:56.028Z,40.27
2017-12-11T02:49:59.500Z,32.30
2017-12-11T02:52:02.197Z,28.17
2017-12-11T02:54:05.715Z,35.20
2017-12-11T02:56:08.379Z,38.63
2017-12-11T02:58:11.800Z,34.20
2017-12-11T03:00:14.473Z,42.10
2017-12-11T03:02:17.155Z,38.23
2017-12-11T03:04:19.813Z,38.33
2017-12-11T03:06:22.484Z,34.73
2017-12-11T03:08:25.133Z,37.60
2017-12-11T03:10:28.020Z,35.50
2017-12-11T03:12:30.711Z,36.57
2017-12-11T03:14:34.128Z,41.40
2017-12-11T03:16:36.811Z,36.23
2017-12-11T03:18:39.451Z,33.43
2017-12-11T03:20:42.896Z,33.00
2017-12-11T03:22:45.584Z,34.07
2017-12-11T03:24:48.255Z,40.07
2017-12-11T03:26:50.922Z,51.70
2017-12-11T03:28:54.373Z,47.73
2017-12-11T03:30:57.819Z,41.60
2017-12-11T03:33:00.522Z,44.27
2017-12-11T03:35:03.202Z,49.07
2017-12-11T03:37:05.868Z,46.57
2017-12-11T03:39:08.591Z,49.63
2017-12-11T03:41:11.285Z,54.83
2017-12-11T03:43:13.950Z,47.63
2017-12-11T03:45:16.616Z,54.43
2017-12-11T03:47:19.267Z,47.27
2017-12-11T03:49:22.918Z,47.80
2017-12-11T03:51:25.639Z,46.63
2017-12-11T03:53:29.110Z,36.57
2017-12-11T03:55:31.793Z,43.13
2017-12-11T03:57:34.464Z,41.20
2017-12-11T03:59:37.234Z,37.03
2017-12-11T04:01:39.890Z,35.03
2017-12-11T04:03:42.577Z,37.17
2017-12-11T04:05:45.420Z,32.80
2017-12-11T04:07:48.069Z,31.40
2017-12-11T04:09:50.732Z,34.60
2017-12-11T04:11:53.373Z,29.93
2017-12-11T04:13:56.016Z,29.90
2017-12-11T04:15:59.463Z,30.77
2017-12-11T04:18:02.119Z,31.20
2017-12-11T04:20:04.795Z,26.30
2017-12-11T04:22:07.459Z,27.60
2017-12-11T04:24:10.100Z,27.70
2017-12-11T04:26:13.554Z,26.37
2017-12-11T04:28:16.205Z,27.83
2017-12-11T04:30:18.875Z,29.03
2017-12-11T04:32:21.558Z,24.93
2017-12-11T04:34:24.200Z,27.83
2017-12-11T04:36:27.646Z,25.30
2017-12-11T04:38:30.311Z,25.67
2017-12-11T04:40:33.040Z,24.90
2017-12-11T04:42:36.534Z,25.67
2017-12-11T04:44:39.182Z,24.10
2017-12-11T04:46:41.834Z,25.47
2017-12-11T04:48:44.507Z,26.90
2017-12-11T04:50:47.143Z,25.60
2017-12-11T04:52:50.562Z,28.00
2017-12-11T04:54:53.225Z,23.73
2017-12-11T04:56:56.632Z,22.83
2017-12-11T04:58:59.291Z,21.07
2017-12-11T05:01:02.740Z,23.67
2017-12-11T05:03:05.388Z,19.60
2017-12-11T05:05:08.078Z,22.60
2017-12-11T05:07:10.860Z,20.07
2017-12-11T05:09:13.612Z,19.83
2017-12-11T05:11:16.300Z,17.70
2017-12-11T05:13:18.998Z,19.17
2017-12-11T05:15:21.692Z,15.87
2017-12-11T05:17:24.391Z,15.60
2017-12-11T05:19:27.905Z,14.57
2017-12-11T05:21:30.590Z,16.83
2017-12-11T05:23:33.275Z,17.10
2017-12-11T05:25:35.940Z,14.93
2017-12-11T05:27:38.614Z,17.93
2017-12-11T05:29:41.322Z,15.33
2017-12-11T05:31:44.008Z,14.30
2017-12-11T05:33:46.691Z,16.43
2017-12-11T05:35:49.535Z,18.17
2017-12-11T05:37:52.185Z,17.30
2017-12-11T05:39:55.614Z,15.40
2017-12-11T05:41:58.347Z,16.13
2017-12-11T05:44:01.790Z,13.27
2017-12-11T05:46:04.469Z,15.63
2017-12-11T05:48:07.160Z,17.73
2017-12-11T05:50:09.813Z,14.80
2017-12-11T05:52:12.463Z,14.47
2017-12-11T05:54:15.200Z,15.13
2017-12-11T05:56:17.855Z,14.03
2017-12-11T05:58:20.579Z,14.47
2017-12-11T06:00:24.046Z,16.00
2017-12-11T06:02:26.715Z,19.03
2017-12-11T06:04:29.371Z,17.07
2017-12-11T06:06:32.052Z,15.57
2017-12-11T06:08:34.712Z,15.43
2017-12-11T06:10:37.383Z,14.07
2017-12-11T06:12:40.131Z,14.83
2017-12-11T06:14:43.586Z,14.03
2017-12-11T06:16:46.265Z,14.27
2017-12-11T06:18:48.954Z,14.47
2017-12-11T06:20:51.609Z,17.20
2017-12-11T06:22:54.298Z,15.17
2017-12-11T06:24:57.013Z,17.53
2017-12-11T06:27:00.630Z,13.67
2017-12-11T06:29:03.282Z,13.57
2017-12-11T06:31:06.710Z,14.80
2017-12-11T06:33:09.461Z,12.70
2017-12-11T06:35:12.917Z,14.40
2017-12-11T06:37:15.565Z,12.40
2017-12-11T06:39:18.220Z,12.50
2017-12-11T06:41:20.917Z,15.03
2017-12-11T06:43:23.595Z,17.27
2017-12-11T06:45:26.274Z,13.57
2017-12-11T06:47:28.938Z,15.23
2017-12-11T06:49:31.978Z,15.80
2017-12-11T06:51:35.416Z,17.83
2017-12-11T06:53:38.079Z,20.33
2017-12-11T06:55:40.767Z,20.13
2017-12-11T06:57:43.447Z,18.90
2017-12-11T06:59:46.146Z,20.30
2017-12-11T07:01:48.782Z,17.60
2017-12-11T07:03:51.474Z,24.23
2017-12-11T07:05:54.133Z,23.67
2017-12-11T07:08:00.776Z,19.53
2017-12-11T07:10:04.286Z,24.37
2017-12-11T07:12:07.695Z,19.60
2017-12-11T07:14:10.342Z,20.90
2017-12-11T07:16:13.776Z,22.07
2017-12-11T07:18:16.453Z,24.20
2017-12-11T07:20:19.107Z,20.00
2017-12-11T07:22:22.550Z,21.90
2017-12-11T07:24:25.199Z,21.77
2017-12-11T07:26:27.840Z,21.63
2017-12-11T07:28:31.291Z,21.93
2017-12-11T07:30:33.937Z,21.30
2017-12-11T07:32:36.584Z,22.57
2017-12-11T07:34:40.054Z,23.20
2017-12-11T07:36:42.719Z,22.57
2017-12-11T07:38:45.361Z,24.33
2017-12-11T07:40:48.057Z,25.13
2017-12-11T07:42:50.721Z,24.83
2017-12-11T07:44:53.581Z,24.33
2017-12-11T07:46:56.253Z,25.13
2017-12-11T07:48:58.896Z,23.60
2017-12-11T07:51:01.537Z,26.00
2017-12-11T07:53:04.205Z,23.23
2017-12-11T07:55:06.888Z,21.20
2017-12-11T07:57:09.521Z,26.80
2017-12-11T07:59:12.954Z,23.27
2017-12-11T08:01:15.601Z,24.63
2017-12-11T08:03:18.284Z,27.10
2017-12-11T08:05:20.954Z,24.70
2017-12-11T08:07:23.617Z,24.43
2017-12-11T08:09:27.043Z,28.97
2017-12-11T08:11:29.729Z,22.23
2017-12-11T08:13:32.370Z,23.90
2017-12-11T08:15:35.193Z,24.30
2017-12-11T08:17:37.867Z,28.23
2017-12-11T08:19:41.646Z,26.27
2017-12-11T08:21:44.890Z,27.10
2017-12-11T08:23:47.597Z,29.43
2017-12-11T08:25:50.256Z,27.97
2017-12-11T08:27:53.686Z,29.13
2017-12-11T08:29:56.369Z,27.57
2017-12-11T08:31:59.032Z,31.20
2017-12-11T08:34:01.690Z,31.57
2017-12-11T08:36:05.144Z,34.03
2017-12-11T08:38:08.213Z,36.00
2017-12-11T08:40:10.969Z,32.63
2017-12-11T08:42:13.640Z,32.70
2017-12-11T08:44:16.322Z,33.97
2017-12-11T08:46:18.979Z,36.60
2017-12-11T08:48:21.691Z,39.43
2017-12-11T08:50:24.355Z,49.40
2017-12-11T08:52:27.330Z,40.23
2017-12-11T08:54:30.153Z,39.63
2017-12-11T08:56:32.855Z,42.20
2017-12-11T08:58:36.342Z,42.10
2017-12-11T09:00:39.023Z,39.67
2017-12-11T09:02:42.446Z,42.10
2017-12-11T09:04:45.119Z,39.27
2017-12-11T09:06:47.784Z,44.83
2017-12-11T09:08:51.257Z,45.73
2017-12-11T09:10:53.958Z,44.30
2017-12-11T09:12:57.406Z,46.80
2017-12-11T09:15:00.063Z,43.13
2017-12-11T09:17:02.747Z,48.20
2017-12-11T09:19:05.406Z,50.60
2017-12-11T09:21:08.064Z,53.20
2017-12-11T09:23:10.729Z,53.20
2017-12-11T09:25:14.145Z,53.47
2017-12-11T09:27:16.822Z,53.30
2017-12-11T09:29:19.465Z,52.63
2017-12-11T09:31:22.891Z,49.60
2017-12-11T09:33:25.566Z,53.53
2017-12-11T09:35:28.211Z,52.97
2017-12-11T09:37:31.635Z,56.93
2017-12-11T09:39:34.308Z,49.33
2017-12-11T09:41:37.005Z,55.17
2017-12-11T09:43:39.762Z,56.87
2017-12-11T09:45:42.463Z,56.93
2017-12-11T09:47:45.135Z,57.00
2017-12-11T09:49:47.805Z,62.90
2017-12-11T09:51:50.584Z,63.67
2017-12-11T09:53:53.242Z,62.50
2017-12-11T09:55:55.920Z,62.20
2017-12-11T09:57:58.724Z,59.30
2017-12-11T10:00:02.187Z,64.50
2017-12-11T10:02:04.900Z,63.17
2017-12-11T10:04:07.759Z,62.93
2017-12-11T10:06:10.497Z,79.07
2017-12-11T10:08:13.980Z,77.83
2017-12-11T10:10:16.628Z,76.80
2017-12-11T10:12:19.469Z,72.00
2017-12-11T10:14:24.018Z,65.73
2017-12-11T10:16:26.707Z,86.97
2017-12-11T10:18:29.403Z,74.83
2017-12-11T10:20:32.153Z,62.60
2017-12-11T10:22:34.859Z,69.97
2017-12-11T10:24:37.548Z,82.17
2017-12-11T10:26:40.966Z,80.87
2017-12-11T10:28:43.616Z,76.50
2017-12-11T10:30:46.287Z,86.77
2017-12-11T10:32:49.017Z,76.83
2017-12-11T10:34:51.666Z,73.80
2017-12-11T10:36:55.123Z,76.00
2017-12-11T10:38:57.784Z,72.77
2017-12-11T10:41:00.432Z,74.93
2017-12-11T10:43:03.115Z,62.07
2017-12-11T10:45:05.887Z,67.67
2017-12-11T10:47:08.836Z,62.40
2017-12-11T10:49:12.295Z,55.60
2017-12-11T10:51:15.045Z,59.90
2017-12-11T10:53:17.790Z,58.83
2017-12-11T10:55:21.226Z,58.63
2017-12-11T10:57:23.945Z,60.87
2017-12-11T10:59:31.841Z,66.00
2017-12-11T11:01:34.551Z,62.93
2017-12-11T11:03:37.957Z,66.90
2017-12-11T11:05:40.771Z,61.10
2017-12-11T11:07:43.468Z,69.07
2017-12-11T11:09:46.105Z,70.70
2017-12-11T11:11:48.753Z,62.67
2017-12-11T11:13:51.400Z,58.80
2017-12-11T11:15:54.086Z,58.37
2017-12-11T11:17:58.217Z,57.27
2017-12-11T11:20:00.991Z,50.10
2017-12-11T11:22:04.429Z,50.03
2017-12-11T11:24:07.149Z,51.10
2017-12-11T11:26:10.576Z,50.40
2017-12-11T11:28:14.282Z,50.33
2017-12-11T11:30:16.977Z,47.23
2017-12-11T11:32:19.626Z,40.77
2017-12-11T11:34:22.274Z,41.97
2017-12-11T11:36:25.704Z,49.27
2017-12-11T11:38:28.375Z,43.30
2017-12-11T11:40:31.201Z,46.80
2017-12-11T11:42:33.868Z,41.20
2017-12-11T11:44:36.509Z,49.10
2017-12-11T11:46:39.154Z,47.87
2017-12-11T11:48:42.604Z,44.17
2017-12-11T11:50:45.257Z,43.57
2017-12-11T11:52:47.945Z,36.90
2017-12-11T11:54:50.785Z,37.60
2017-12-11T11:56:54.263Z,37.00
2017-12-11T11:58:56.988Z,39.30
2017-12-11T12:00:59.831Z,44.07
2017-12-11T12:03:03.260Z,40.03
2017-12-11T12:05:05.928Z,40.17
2017-12-11T12:07:08.642Z,45.47
2017-12-11T12:09:11.726Z,38.30
2017-12-11T12:11:14.446Z,39.27
2017-12-11T12:13:17.892Z,42.00
2017-12-11T12:15:20.583Z,47.53
2017-12-11T12:17:23.272Z,44.47
2017-12-11T12:19:25.969Z,49.80
2017-12-11T12:21:29.393Z,52.30
2017-12-11T12:23:32.052Z,47.60
2017-12-11T12:25:34.746Z,48.00
2017-12-11T12:27:37.413Z,45.43
2017-12-11T12:29:40.197Z,52.60
2017-12-11T12:31:42.928Z,45.80
2017-12-11T12:33:45.602Z,46.43
2017-12-11T12:35:48.361Z,51.73
2017-12-11T12:37:51.040Z,51.77
2017-12-11T12:39:53.680Z,49.80
2017-12-11T12:41:56.396Z,49.50
2017-12-11T12:43:59.049Z,46.87
2017-12-11T12:46:01.709Z,41.20
2017-12-11T12:48:04.393Z,40.40
2017-12-11T12:50:07.037Z,46.97
2017-12-11T12:52:10.453Z,41.77
2017-12-11T12:54:13.137Z,44.93
2017-12-11T12:56:15.831Z,44.20
2017-12-11T12:58:18.489Z,44.43
2017-12-11T13:00:21.166Z,49.27
2017-12-11T13:02:23.801Z,40.20
2017-12-11T13:04:26.483Z,47.17
2017-12-11T13:06:29.941Z,44.57
2017-12-11T13:08:32.602Z,42.80
2017-12-11T13:10:35.312Z,45.83
2017-12-11T13:12:38.140Z,43.70
2017-12-11T13:14:40.807Z,50.40
2017-12-11T13:16:43.501Z,46.03
2017-12-11T13:18:46.155Z,51.33
2017-12-11T13:20:48.811Z,45.77
2017-12-11T13:22:52.252Z,52.63
2017-12-11T13:24:54.916Z,50.70
2017-12-11T13:26:57.579Z,51.40
2017-12-11T13:29:00.519Z,50.73
2017-12-11T13:31:03.170Z,52.50
2017-12-11T13:33:05.874Z,53.50
2017-12-11T13:35:08.594Z,48.20
2017-12-11T13:37:11.256Z,54.13
2017-12-11T13:39:13.905Z,50.23
2017-12-11T13:41:16.592Z,53.23
2017-12-11T13:43:20.001Z,56.17
2017-12-11T13:45:22.649Z,49.90
2017-12-11T13:47:26.103Z,52.37
2017-12-11T13:49:28.758Z,54.33
2017-12-11T13:51:31.402Z,56.53
2017-12-11T13:53:34.852Z,54.60
2017-12-11T13:55:37.848Z,48.30
2017-12-11T13:57:40.504Z,55.27
2017-12-11T13:59:43.183Z,49.37
2017-12-11T14:01:45.831Z,58.00
2017-12-11T14:03:48.495Z,48.00
2017-12-11T14:05:51.937Z,47.90
2017-12-11T14:07:54.608Z,59.87
2017-12-11T14:09:57.471Z,50.77
2017-12-11T14:12:00.228Z,44.00
2017-12-11T14:14:03.663Z,40.97
2017-12-11T14:16:06.344Z,44.07
2017-12-11T14:18:08.988Z,43.37
2017-12-11T14:20:11.642Z,42.43
2017-12-11T14:22:15.124Z,49.93
2017-12-11T14:24:18.762Z,46.23
2017-12-11T14:26:21.405Z,40.87
2017-12-11T14:28:24.854Z,40.20
2017-12-11T14:30:27.533Z,43.80
2017-12-11T14:32:30.270Z,41.50
2017-12-11T14:34:32.957Z,38.90
2017-12-11T14:36:35.616Z,43.97
2017-12-11T14:38:38.280Z,41.73
2017-12-11T14:40:41.751Z,43.20
2017-12-11T14:42:44.390Z,41.47
2017-12-11T14:44:47.038Z,40.27
2017-12-11T14:46:50.483Z,48.77
2017-12-11T14:48:53.125Z,46.03
2017-12-11T14:50:55.782Z,42.07
2017-12-11T14:52:59.226Z,50.57
2017-12-11T14:55:01.887Z,43.47
2017-12-11T14:57:04.650Z,42.90
2017-12-11T14:59:07.335Z,46.50
2017-12-11T15:01:09.985Z,49.97
2017-12-11T15:03:13.423Z,48.27
2017-12-11T15:05:16.281Z,52.03
2017-12-11T15:07:18.970Z,47.97
2017-12-11T15:09:21.616Z,50.17
2017-12-11T15:11:24.456Z,53.50
2017-12-11T15:13:27.138Z,44.77
2017-12-11T15:15:29.778Z,46.07
2017-12-11T15:17:32.453Z,52.80
2017-12-11T15:19:35.127Z,50.77
2017-12-11T15:21:37.796Z,53.67
2017-12-11T15:23:40.583Z,54.17
2017-12-11T15:25:43.245Z,53.40
2017-12-11T15:27:45.963Z,63.00
2017-12-11T15:29:48.677Z,54.27
2017-12-11T15:31:52.114Z,66.30
2017-12-11T15:33:54.802Z,59.20
2017-12-11T15:35:57.647Z,74.27
2017-12-11T15:38:00.329Z,71.60
2017-12-11T15:40:04.063Z,69.77
2017-12-11T15:42:06.775Z,69.37
2017-12-11T15:44:10.211Z,76.03
2017-12-11T15:46:12.891Z,66.50
2017-12-11T15:48:15.599Z,76.80
2017-12-11T15:50:18.277Z,70.77
2017-12-11T15:52:20.972Z,75.17
2017-12-11T15:54:24.441Z,77.13
2017-12-11T15:56:27.111Z,81.93
2017-12-11T15:58:29.790Z,72.63
2017-12-11T16:00:32.475Z,91.90
2017-12-11T16:02:35.227Z,68.80
2017-12-11T16:04:38.081Z,67.20
2017-12-11T16:06:40.773Z,75.40
2017-12-11T16:08:43.470Z,85.63
2017-12-11T16:10:46.226Z,88.10
2017-12-11T16:12:48.932Z,94.27
2017-12-11T16:14:51.591Z,84.23
2017-12-11T16:16:54.242Z,71.77
2017-12-11T16:18:56.942Z,75.47
2017-12-11T16:20:59.628Z,77.17
2017-12-11T16:23:02.490Z,88.77
2017-12-11T16:25:05.625Z,78.17
2017-12-11T16:27:09.077Z,89.70
2017-12-11T16:29:11.837Z,83.10
2017-12-11T16:31:14.630Z,85.60
2017-12-11T16:33:17.327Z,86.07
2017-12-11T16:35:20.015Z,84.93
2017-12-11T16:37:22.815Z,83.47
2017-12-11T16:39:26.278Z,82.07
2017-12-11T16:41:29.273Z,82.57
2017-12-11T16:43:32.214Z,83.37
2017-12-11T16:45:35.030Z,82.93
2017-12-11T16:47:41.801Z,78.10
2017-12-11T16:49:44.475Z,76.73
2017-12-11T16:51:47.133Z,76.83
2017-12-11T16:53:49.812Z,79.97
2017-12-11T16:55:52.462Z,88.60
2017-12-11T16:57:55.157Z,80.80
2017-12-11T16:59:57.836Z,81.00
2017-12-11T17:02:00.571Z,78.07
2017-12-11T17:04:04.236Z,69.93
2017-12-11T17:06:08.079Z,75.77
2017-12-11T17:08:11.617Z,64.83
2017-12-11T17:10:14.316Z,72.37
2017-12-11T17:12:16.967Z,74.30
2017-12-11T17:14:19.633Z,73.87
2017-12-11T17:16:22.323Z,112.23
2017-12-11T17:18:24.960Z,78.47
2017-12-11T17:20:27.604Z,77.30
2017-12-11T17:22:30.284Z,73.03
2017-12-11T17:24:32.947Z,84.97
2017-12-11T17:26:35.678Z,84.90
2017-12-11T17:28:38.363Z,89.77
2017-12-11T17:30:41.005Z,96.43
2017-12-11T17:32:44.416Z,84.70
2017-12-11T17:34:47.223Z,95.43
2017-12-11T17:36:49.884Z,93.77
2017-12-11T17:38:52.546Z,98.60
2017-12-11T17:40:55.349Z,89.60
2017-12-11T17:42:57.999Z,106.20
2017-12-11T17:45:00.686Z,90.20
2017-12-11T17:47:03.378Z,101.37
2017-12-11T17:49:06.096Z,103.20
2017-12-11T17:51:08.775Z,101.97
2017-12-11T17:53:11.463Z,99.83
2017-12-11T17:55:14.900Z,107.17
2017-12-11T17:57:17.796Z,88.03
2017-12-11T17:59:20.668Z,93.67
2017-12-11T18:01:23.367Z,106.63
2017-12-11T18:03:26.105Z,107.37
2017-12-11T18:05:28.794Z,96.90
2017-12-11T18:07:31.648Z,107.60
2017-12-11T18:09:34.304Z,87.97
2017-12-11T18:11:37.767Z,99.80
2017-12-11T18:13:40.485Z,101.23
2017-12-11T18:15:43.897Z,96.00
2017-12-11T18:17:46.588Z,105.93
2017-12-11T18:19:49.261Z,189.23
2017-12-11T18:21:51.919Z,172.43
2017-12-11T18:23:54.582Z,142.43
2017-12-11T18:25:58.012Z,110.53
2017-12-11T18:28:00.671Z,110.87
2017-12-11T18:30:03.374Z,106.87
2017-12-11T18:32:06.031Z,110.27
2017-12-11T18:34:08.751Z,129.10
2017-12-11T18:36:11.421Z,124.97
2017-12-11T18:38:14.145Z,104.53
2017-12-11T18:40:16.945Z,174.37
2017-12-11T18:42:19.629Z,98.47
2017-12-11T18:44:22.315Z,113.53
2017-12-11T18:46:24.978Z,115.27
2017-12-11T18:48:27.621Z,121.50
2017-12-11T18:50:30.287Z,92.70
2017-12-11T18:52:33.738Z,113.20
2017-12-11T18:54:36.393Z,134.83
2017-12-11T18:56:39.217Z,106.07
2017-12-11T18:58:42.048Z,98.83
2017-12-11T19:00:44.734Z,92.43
2017-12-11T19:02:48.031Z,91.07
2017-12-11T19:04:50.916Z,97.60
2017-12-11T19:06:54.316Z,70.97
2017-12-11T19:08:56.980Z,87.73
2017-12-11T19:10:59.659Z,88.10
2017-12-11T19:13:02.419Z,86.33
2017-12-11T19:15:05.100Z,86.17
2017-12-11T19:17:07.790Z,81.47
2017-12-11T19:19:10.776Z,82.83
2017-12-11T19:21:13.482Z,88.70
2017-12-11T19:23:16.250Z,90.63
2017-12-11T19:25:18.916Z,109.47
2017-12-11T19:27:21.607Z,74.37
2017-12-11T19:29:24.365Z,81.77
2017-12-11T19:31:27.032Z,108.17
2017-12-11T19:33:29.692Z,77.83
2017-12-11T19:35:32.377Z,56.47
2017-12-11T19:37:35.052Z,84.33
2017-12-11T19:39:37.928Z,87.13
2017-12-11T19:41:40.812Z,89.47
2017-12-11T19:43:43.502Z,93.30
2017-12-11T19:45:46.194Z,114.37
2017-12-11T19:47:49.358Z,125.87
2017-12-11T19:49:52.054Z,110.03
2017-12-11T19:51:54.763Z,114.23
2017-12-11T19:53:58.353Z,162.60
2017-12-11T19:56:01.243Z,141.83
2017-12-11T19:58:04.688Z,119.07
2017-12-11T20:00:07.547Z,128.77
2017-12-11T20:02:10.199Z,167.97
2017-12-11T20:04:12.984Z,110.73
2017-12-11T20:06:16.412Z,137.10
2017-12-11T20:08:19.081Z,146.93
2017-12-11T20:10:21.729Z,159.77
2017-12-11T20:12:25.142Z,235.50
2017-12-11T20:14:28.099Z,208.80
2017-12-11T20:16:31.623Z,126.60
2017-12-11T20:18:34.280Z,116.27
2017-12-11T20:20:37.904Z,169.97
2017-12-11T20:22:40.678Z,171.97
2017-12-11T20:24:43.468Z,202.57
2017-12-11T20:26:46.259Z,234.03
2017-12-11T20:28:49.042Z,140.87
2017-12-11T20:30:51.724Z,151.60
2017-12-11T20:32:54.414Z,128.47
2017-12-11T20:34:57.057Z,150.13
2017-12-11T20:37:01.095Z,174.47
2017-12-11T20:39:04.693Z,152.77
2017-12-11T20:41:07.638Z,161.00
2017-12-11T20:43:10.308Z,121.37
2017-12-11T20:45:13.003Z,129.30
2017-12-11T20:47:15.658Z,119.20
2017-12-11T20:49:18.347Z,117.17
2017-12-11T20:51:21.040Z,140.43
2017-12-11T20:53:23.733Z,126.80
2017-12-11T20:55:26.398Z,185.27
2017-12-11T20:57:29.985Z,174.40
2017-12-11T20:59:32.825Z,109.37
2017-12-11T21:01:39.929Z,108.60
2017-12-11T21:03:42.638Z,96.23
2017-12-11T21:05:46.111Z,105.43
2017-12-11T21:07:49.011Z,125.03
2017-12-11T21:09:51.685Z,146.10
2017-12-11T21:11:54.340Z,128.87
2017-12-11T21:13:56.977Z,115.93
2017-12-11T21:16:00.829Z,99.33
2017-12-11T21:18:03.531Z,99.03
2017-12-11T21:20:06.357Z,106.33
2017-12-11T21:22:09.058Z,93.27
2017-12-11T21:24:11.730Z,174.23
2017-12-11T21:26:14.433Z,88.27
2017-12-11T21:28:17.128Z,87.77
2017-12-11T21:30:20.582Z,94.50
2017-12-11T21:32:23.271Z,76.60
2017-12-11T21:34:25.987Z,88.50
2017-12-11T21:36:29.393Z,84.33
2017-12-11T21:38:32.042Z,74.10
2017-12-11T21:40:34.734Z,80.77
2017-12-11T21:42:38.272Z,81.90
2017-12-11T21:44:40.986Z,74.97
2017-12-11T21:46:43.808Z,66.47
2017-12-11T21:48:46.481Z,69.33
2017-12-11T21:50:49.168Z,62.57
2017-12-11T21:52:51.951Z,75.80
2017-12-11T21:54:54.610Z,62.07
2017-12-11T21:56:57.301Z,61.00
2017-12-11T21:58:59.995Z,65.63
2017-12-11T22:01:02.667Z,63.97
2017-12-11T22:03:05.368Z,53.90
2017-12-11T22:05:08.100Z,58.57
2017-12-11T22:07:10.748Z,63.93
2017-12-11T22:09:14.185Z,52.23
2017-12-11T22:11:16.882Z,58.40
2017-12-11T22:13:19.555Z,66.87
2017-12-11T22:15:22.218Z,59.13
2017-12-11T22:17:25.043Z,53.53
2017-12-11T22:19:28.470Z,56.97
2017-12-11T22:21:31.143Z,55.10
2017-12-11T22:23:33.859Z,63.40
2017-12-11T22:25:36.562Z,64.03
2017-12-11T22:27:40.339Z,52.37
2017-12-11T22:29:43.122Z,56.07
2017-12-11T22:31:45.757Z,57.67
2017-12-11T22:33:48.529Z,55.17
2017-12-11T22:35:51.192Z,53.83
2017-12-11T22:37:54.616Z,56.10
2017-12-11T22:39:57.381Z,53.60
2017-12-11T22:42:00.053Z,58.80
2017-12-11T22:44:02.717Z,58.37
2017-12-11T22:46:06.221Z,44.40
2017-12-11T22:48:08.908Z,51.00
2017-12-11T22:50:11.582Z,53.07
2017-12-11T22:52:16.341Z,56.77
2017-12-11T22:54:19.107Z,53.37
2017-12-11T22:56:21.858Z,53.63
2017-12-11T22:58:24.517Z,51.10
2017-12-11T23:00:31.904Z,53.77
2017-12-11T23:02:35.344Z,57.63
2017-12-11T23:04:37.987Z,54.30
2017-12-11T23:06:40.799Z,54.07
2017-12-11T23:08:43.458Z,54.30
2017-12-11T23:10:46.116Z,52.33
2017-12-11T23:12:48.904Z,49.17
2017-12-11T23:14:51.580Z,49.97
2017-12-11T23:16:54.263Z,52.90
2017-12-11T23:18:58.254Z,40.50
2017-12-11T23:21:00.915Z,53.50
2017-12-11T23:23:04.333Z,52.70
2017-12-11T23:25:07.288Z,44.50
2017-12-11T23:27:10.734Z,44.57
2017-12-11T23:29:13.416Z,45.47
2017-12-11T23:31:16.064Z,40.50
2017-12-11T23:33:18.716Z,44.60
2017-12-11T23:35:22.334Z,42.97
2017-12-11T23:37:24.991Z,47.10
2017-12-11T23:39:28.429Z,40.67
2017-12-11T23:41:31.265Z,40.03
2017-12-11T23:43:34.685Z,38.30
2017-12-11T23:45:37.363Z,46.70
2017-12-11T23:47:40.006Z,32.67
2017-12-11T23:49:43.511Z,35.10
2017-12-11T23:51:46.173Z,36.40
2017-12-11T23:53:49.598Z,37.40
2017-12-11T23:55:52.255Z,34.23
2017-12-11T23:57:54.951Z,33.43
2017-12-11T23:59:57.737Z,37.03
